Saragt, Turkmenistan

9:32 AM TMT on October 22, 2014 (GMT +0500)
SARAKHS | Change Station
CLOSE
Current Station
Airport
Location: SARAKHS,
Elevation: 945 ft
Nearby Weather Stations

Elev 945 ft 36.50 °N, 61.06 °E | Updated 32 minutes ago

Mostly Cloudy
Mostly Cloudy
61 °F
Feels Like 61 °F
N
21
Wind Variable Wind from WNW

Today
High -- | Low -- °F
--% Chance of Precip.
Yesterday
High -- | Low -- °F
Precip. -- in
7:08 AM 6:10 PM
Waning Crescent, 3% visible
Pressure 29.89 in
Visibility 5.0 miles
Clouds Few 3000 ft
Scattered Clouds 3500 ft
Mostly Cloudy 20000 ft
Dew Point 46 °F
Humidity 59%
Rainfall 0.00 in
Snow Depth Not available.
UV 1 out of 12
Pollen Not available.
Air Quality Not available.
Flu Activity Not available.
METAR OIMC 220400Z 30018KT 8000 FEW030CB SCT035 BKN200 16/08 Q1012

More Conditions Fewer Conditions

Pressure 29.89 in
Visibility 5.0 miles
Clouds Few 3000 ft
Scattered Clouds 3500 ft
Mostly Cloudy 20000 ft
Dew Point 46 °F
Humidity 59%
Rainfall 0.00 in
Snow Depth Not available.
UV 1 out of 12
Pollen Not available.
Air Quality Not available.
Flu Activity Not available.
METAR OIMC 220400Z 30018KT 8000 FEW030CB SCT035 BKN200 16/08 Q1012

More Conditions Fewer Conditions

10-Day Weather Forecast

Almanac

Astronomy

Oct. 22, 2014 Rise Set
Actual Time 7:08 AM TMT 6:10 PM TMT
Civil Twilight 6:42 AM TMT 6:36 PM TMT
Nautical Twilight 6:12 AM TMT 7:06 PM TMT
Astronomical Twilight 5:42 AM TMT 7:36 PM TMT
Moon 5:28 AM TMT 5:21 PM TMT
Length of Visible Light 11h 54m
Length of Day
11h 01m
Tomorrow will be 2m 10s shorter.
Waning Crescent, 3% of the Moon is Illuminated
Today
Waning Crescent
Oct 23
New
Oct 30
First Quarter
Nov 6
Full
Nov 14
Last Quarter

Yesterday's Extremes

Country Highs Country Lows

Community

WunderPhotos

Upload Photos

1,763,882 photos uploaded!

Nearby

Snow Depth

Not available.

Earthquake Activity

City Distance Mag. Time & Date
No recent earthquake activity has been reported nearby.
Minimum magnitude displayed is 2.5.

Coastal Water Temperatures

Place Temperature
No Stations Reporting

Nearby Weather Stations